La Mole Airport


Codes: LFTZ/LTT
Name: La Mole Airport
City: La Mole
Country: France
Elevation: 59 ft.

Photos at La Mole Airport


   Photos courtesy of SpottingLog. You can add your own sightings and photos by signing up for a free trial today.



No photos found.

Weather at La Mole Airport


Time (UTC)DescriptionTempratureWindCloud coverageVisibilityPressureHumidity
19-Apr-2024 03:00Clear Sky9°C4 mph, NW0%10000m1018hPa58%
19-Apr-2024 06:00Clear Sky8°C4 mph, NW0%10000m1018hPa56%
19-Apr-2024 09:00Clear Sky13°C2 mph, SW0%10000m1018hPa40%
19-Apr-2024 12:00Clear Sky15°C11 mph, SW1%10000m1016hPa31%
19-Apr-2024 15:00Clear Sky17°C9 mph, SW3%10000m1013hPa34%
19-Apr-2024 18:00Clear Sky15°C20 mph, NW8%10000m1011hPa41%
19-Apr-2024 21:00Clear Sky14°C25 mph, NW1%10000m1011hPa43%
20-Apr-2024 00:00Clear Sky13°C25 mph, NW0%10000m1009hPa48%
20-Apr-2024 03:00Clear Sky11°C25 mph, NW0%10000m1007hPa57%
20-Apr-2024 06:00Clear Sky11°C27 mph, NW0%10000m1007hPa47%
20-Apr-2024 09:00Clear Sky15°C22 mph, NW0%10000m1008hPa34%
20-Apr-2024 12:00Clear Sky16°C13 mph, SE1%10000m1009hPa42%
20-Apr-2024 15:00Clear Sky16°C13 mph, SE0%10000m1009hPa37%
20-Apr-2024 18:00Clear Sky13°C4 mph, SE0%10000m1009hPa48%
20-Apr-2024 21:00Clear Sky11°C9 mph, E0%10000m1012hPa59%
21-Apr-2024 00:00Clear Sky9°C4 mph, N4%10000m1013hPa68%
21-Apr-2024 03:00Clear Sky7°C7 mph, NW9%10000m1014hPa64%
21-Apr-2024 06:00Scattered Clouds8°C4 mph, NW26%10000m1014hPa57%
21-Apr-2024 09:00Light Rain12°C7 mph, E91%10000m1014hPa57%
21-Apr-2024 12:00Light Rain10°C11 mph, E80%10000m1014hPa70%
21-Apr-2024 15:00Light Rain8°C13 mph, NE100%6499m1014hPa86%
21-Apr-2024 18:00Light Rain8°C4 mph, NE95%10000m1014hPa73%
21-Apr-2024 21:00Broken Clouds8°C7 mph, N76%10000m1016hPa75%
22-Apr-2024 00:00Light Rain7°C2 mph, N82%10000m1016hPa79%
22-Apr-2024 03:00Light Rain7°C2 mph, NW98%10000m1015hPa81%
22-Apr-2024 06:00Light Rain7°C7 mph, NE98%10000m1016hPa79%
22-Apr-2024 09:00Moderate Rain8°C7 mph, NE100%9531m1017hPa82%
22-Apr-2024 12:00Light Rain10°C9 mph, NE100%10000m1017hPa66%
22-Apr-2024 15:00Light Rain12°C2 mph, E100%10000m1015hPa47%
22-Apr-2024 18:00Overcast Clouds10°C2 mph, S93%10000m1015hPa58%
22-Apr-2024 21:00Overcast Clouds8°C2 mph, W94%10000m1016hPa67%
23-Apr-2024 00:00Broken Clouds7°C4 mph, NW73%10000m1014hPa77%
23-Apr-2024 03:00Broken Clouds6°C4 mph, NW74%10000m1012hPa81%
23-Apr-2024 06:00Broken Clouds7°C4 mph, NW73%10000m1011hPa74%
23-Apr-2024 09:00Clear Sky13°C0 mph, NW1%10000m1010hPa47%
23-Apr-2024 12:00Light Rain13°C9 mph, S9%10000m1009hPa50%
23-Apr-2024 15:00Broken Clouds15°C4 mph, S61%10000m1005hPa36%
23-Apr-2024 18:00Broken Clouds11°C7 mph, NW52%10000m1006hPa52%
23-Apr-2024 21:00Broken Clouds8°C7 mph, W54%10000m1006hPa50%
24-Apr-2024 00:00Broken Clouds7°C4 mph, W60%10000m1006hPa59%